sensor_id;sensor_type;location;lat;lon;timestamp;pressure;altitude;pressure_sealevel;temperature;humidity
3096;BME280;1558;42.700;23.360;2022-08-14T00:01:57;94806.00;;;17.70;100.00
3096;BME280;1558;42.700;23.360;2022-08-14T00:04:27;94801.31;;;17.67;100.00
3096;BME280;1558;42.700;23.360;2022-08-14T00:07:10;94798.97;;;17.76;100.00
3096;BME280;1558;42.700;23.360;2022-08-14T00:09:40;94794.31;;;17.63;100.00
3096;BME280;1558;42.700;23.360;2022-08-14T00:12:29;94802.09;;;17.71;100.00
3096;BME280;1558;42.700;23.360;2022-08-14T00:15:20;94804.81;;;17.64;100.00
3096;BME280;1558;42.700;23.360;2022-08-14T00:17:49;94783.38;;;17.59;100.00
3096;BME280;1558;42.700;23.360;2022-08-14T00:20:22;94785.72;;;17.57;100.00
3096;BME280;1558;42.700;23.360;2022-08-14T00:23:09;94784.16;;;17.56;100.00
3096;BME280;1558;42.700;23.360;2022-08-14T00:25:43;94774.81;;;17.57;100.00
3096;BME280;1558;42.700;23.360;2022-08-14T00:28:32;94781.81;;;17.54;100.00
3096;BME280;1558;42.700;23.360;2022-08-14T00:31:03;94762.31;;;17.42;100.00
3096;BME280;1558;42.700;23.360;2022-08-14T00:33:33;94761.56;;;17.52;100.00
3096;BME280;1558;42.700;23.360;2022-08-14T00:36:19;94790.41;;;17.74;100.00
3096;BME280;1558;42.700;23.360;2022-08-14T00:39:06;94795.47;;;17.72;100.00
3096;BME280;1558;42.700;23.360;2022-08-14T00:41:36;94784.97;;;17.64;100.00
3096;BME280;1558;42.700;23.360;2022-08-14T00:44:07;94793.13;;;17.56;100.00
3096;BME280;1558;42.700;23.360;2022-08-14T00:46:36;94800.13;;;17.57;100.00
3096;BME280;1558;42.700;23.360;2022-08-14T00:49:05;94792.75;;;17.58;100.00
3096;BME280;1558;42.700;23.360;2022-08-14T00:51:40;94784.94;;;17.53;100.00
3096;BME280;1558;42.700;23.360;2022-08-14T00:54:11;94788.06;;;17.66;100.00
3096;BME280;1558;42.700;23.360;2022-08-14T00:56:48;94782.59;;;17.62;100.00
3096;BME280;1558;42.700;23.360;2022-08-14T00:59:21;94776.00;;;17.63;100.00
3096;BME280;1558;42.700;23.360;2022-08-14T01:01:50;94772.88;;;17.68;100.00
3096;BME280;1558;42.700;23.360;2022-08-14T01:04:22;94759.25;;;17.75;100.00
3096;BME280;1558;42.700;23.360;2022-08-14T01:07:10;94759.63;;;17.77;100.00
3096;BME280;1558;42.700;23.360;2022-08-14T01:09:50;94752.22;;;17.81;100.00
3096;BME280;1558;42.700;23.360;2022-08-14T01:12:19;94765.88;;;17.92;100.00
3096;BME280;1558;42.700;23.360;2022-08-14T01:14:56;94757.66;;;17.88;100.00
3096;BME280;1558;42.700;23.360;2022-08-14T01:17:26;94758.44;;;17.78;100.00
3096;BME280;1558;42.700;23.360;2022-08-14T01:20:17;94758.84;;;17.73;100.00
3096;BME280;1558;42.700;23.360;2022-08-14T01:23:08;94753.78;;;17.75;100.00
3096;BME280;1558;42.700;23.360;2022-08-14T01:25:44;94753.38;;;17.77;100.00
3096;BME280;1558;42.700;23.360;2022-08-14T01:28:12;94753.78;;;17.75;100.00
3096;BME280;1558;42.700;23.360;2022-08-14T01:31:00;94751.44;;;17.84;100.00
3096;BME280;1558;42.700;23.360;2022-08-14T01:33:32;94743.22;;;17.95;100.00
3096;BME280;1558;42.700;23.360;2022-08-14T01:36:20;94742.09;;;17.92;100.00
3096;BME280;1558;42.700;23.360;2022-08-14T01:38:51;94746.38;;;17.76;100.00
3096;BME280;1558;42.700;23.360;2022-08-14T01:41:24;94748.72;;;17.63;100.00
3096;BME280;1558;42.700;23.360;2022-08-14T01:44:00;94742.88;;;17.61;100.00
3096;BME280;1558;42.700;23.360;2022-08-14T01:46:30;94746.38;;;17.58;100.00
3096;BME280;1558;42.700;23.360;2022-08-14T01:49:06;94749.50;;;17.56;100.00
3096;BME280;1558;42.700;23.360;2022-08-14T01:51:36;94742.88;;;17.65;100.00
3096;BME280;1558;42.700;23.360;2022-08-14T01:54:10;94745.59;;;17.61;100.00
3096;BME280;1558;42.700;23.360;2022-08-14T01:56:40;94736.63;;;17.57;100.00
3096;BME280;1558;42.700;23.360;2022-08-14T01:59:19;94744.81;;;17.61;100.00
3096;BME280;1558;42.700;23.360;2022-08-14T02:01:50;94740.53;;;17.63;100.00
3096;BME280;1558;42.700;23.360;2022-08-14T02:04:27;94725.72;;;17.53;100.00
3096;BME280;1558;42.700;23.360;2022-08-14T02:07:16;94742.47;;;17.63;100.00
3096;BME280;1558;42.700;23.360;2022-08-14T02:10:08;94757.69;;;17.64;100.00
3096;BME280;1558;42.700;23.360;2022-08-14T02:12:41;94752.22;;;17.60;100.00
3096;BME280;1558;42.700;23.360;2022-08-14T02:15:10;94747.16;;;17.55;100.00
3096;BME280;1558;42.700;23.360;2022-08-14T02:17:41;94737.41;;;17.54;100.00
3096;BME280;1558;42.700;23.360;2022-08-14T02:20:09;94736.63;;;17.61;100.00
3096;BME280;1558;42.700;23.360;2022-08-14T02:22:39;94731.97;;;17.61;100.00
3096;BME280;1558;42.700;23.360;2022-08-14T02:25:15;94731.94;;;17.65;100.00
3096;BME280;1558;42.700;23.360;2022-08-14T02:27:43;94731.16;;;17.64;100.00
3096;BME280;1558;42.700;23.360;2022-08-14T02:30:31;94673.88;;;17.22;100.00
3096;BME280;1558;42.700;23.360;2022-08-14T02:33:04;94730.41;;;17.60;100.00
3096;BME280;1558;42.700;23.360;2022-08-14T02:35:33;94701.94;;;17.47;100.00
3096;BME280;1558;42.700;23.360;2022-08-14T02:38:06;94729.59;;;17.59;100.00
3096;BME280;1558;42.700;23.360;2022-08-14T02:40:38;94714.00;;;17.46;100.00
3096;BME280;1558;42.700;23.360;2022-08-14T02:43:10;94729.25;;;17.54;100.00
3096;BME280;1558;42.700;23.360;2022-08-14T02:45:39;94731.16;;;17.57;100.00
3096;BME280;1558;42.700;23.360;2022-08-14T02:48:11;94731.97;;;17.54;100.00
3096;BME280;1558;42.700;23.360;2022-08-14T02:51:01;94703.09;;;17.39;100.00
3096;BME280;1558;42.700;23.360;2022-08-14T02:53:30;94727.25;;;17.54;100.00
3096;BME280;1558;42.700;23.360;2022-08-14T02:56:05;94676.59;;;17.29;100.00
3096;BME280;1558;42.700;23.360;2022-08-14T02:58:55;94722.59;;;17.62;100.00
3096;BME280;1558;42.700;23.360;2022-08-14T03:01:26;94719.88;;;17.66;100.00
3096;BME280;1558;42.700;23.360;2022-08-14T03:04:09;94729.63;;;17.70;100.00
3096;BME280;1558;42.700;23.360;2022-08-14T03:06:38;94728.84;;;17.77;100.00
3096;BME280;1558;42.700;23.360;2022-08-14T03:09:28;94687.53;;;17.64;100.00
3096;BME280;1558;42.700;23.360;2022-08-14T03:12:20;94721.78;;;18.07;100.00
3096;BME280;1558;42.700;23.360;2022-08-14T03:14:58;94689.44;;;17.99;100.00
3096;BME280;1558;42.700;23.360;2022-08-14T03:17:26;94714.00;;;17.99;100.00
3096;BME280;1558;42.700;23.360;2022-08-14T03:20:07;94723.75;;;17.96;100.00
3096;BME280;1558;42.700;23.360;2022-08-14T03:22:37;94653.25;;;17.63;100.00
3096;BME280;1558;42.700;23.360;2022-08-14T03:25:08;94725.63;;;18.24;100.00
3096;BME280;1558;42.700;23.360;2022-08-14T03:27:39;94693.69;;;18.17;100.00
3096;BME280;1558;42.700;23.360;2022-08-14T03:30:24;94729.50;;;18.51;100.00
3096;BME280;1558;42.700;23.360;2022-08-14T03:33:07;94674.53;;;18.21;100.00
3096;BME280;1558;42.700;23.360;2022-08-14T03:35:37;94686.66;;;18.09;100.00
3096;BME280;1558;42.700;23.360;2022-08-14T03:38:26;94750.22;;;18.27;100.00
3096;BME280;1558;42.700;23.360;2022-08-14T03:41:18;94718.66;;;18.05;100.00
3096;BME280;1558;42.700;23.360;2022-08-14T03:43:52;94738.91;;;18.25;100.00
3096;BME280;1558;42.700;23.360;2022-08-14T03:46:28;94739.25;;;18.42;100.00
3096;BME280;1558;42.700;23.360;2022-08-14T03:49:16;94740.84;;;18.46;100.00
3096;BME280;1558;42.700;23.360;2022-08-14T03:51:54;94738.09;;;18.28;100.00
3096;BME280;1558;42.700;23.360;2022-08-14T03:54:23;94759.19;;;18.21;100.00
3096;BME280;1558;42.700;23.360;2022-08-14T03:56:52;94737.38;;;18.17;100.00
3096;BME280;1558;42.700;23.360;2022-08-14T03:59:21;94742.81;;;18.24;100.00
3096;BME280;1558;42.700;23.360;2022-08-14T04:01:54;94695.69;;;17.85;100.00
3096;BME280;1558;42.700;23.360;2022-08-14T04:04:27;94740.50;;;18.05;100.00
3096;BME280;1558;42.700;23.360;2022-08-14T04:06:57;94742.84;;;17.96;100.00
3096;BME280;1558;42.700;23.360;2022-08-14T04:09:26;94740.53;;;17.91;100.00
3096;BME280;1558;42.700;23.360;2022-08-14T04:11:55;94733.50;;;17.90;100.00
3096;BME280;1558;42.700;23.360;2022-08-14T04:14:29;94738.97;;;17.87;100.00
3096;BME280;1558;42.700;23.360;2022-08-14T04:17:03;94740.91;;;17.90;100.00
3096;BME280;1558;42.700;23.360;2022-08-14T04:19:36;94709.75;;;17.63;100.00
3096;BME280;1558;42.700;23.360;2022-08-14T04:22:04;94742.06;;;17.85;100.00
3096;BME280;1558;42.700;23.360;2022-08-14T04:24:33;94702.34;;;17.63;100.00
3096;BME280;1558;42.700;23.360;2022-08-14T04:27:05;94658.69;;;17.38;100.00
3096;BME280;1558;42.700;23.360;2022-08-14T04:29:37;94688.69;;;17.52;100.00
3096;BME280;1558;42.700;23.360;2022-08-14T04:32:06;94734.69;;;17.89;100.00
3096;BME280;1558;42.700;23.360;2022-08-14T04:34:54;94738.94;;;17.90;100.00
3096;BME280;1558;42.700;23.360;2022-08-14T04:37:23;94744.44;;;17.87;100.00
3096;BME280;1558;42.700;23.360;2022-08-14T04:40:11;94733.50;;;17.83;100.00
3096;BME280;1558;42.700;23.360;2022-08-14T04:42:57;94717.53;;;17.78;100.00
3096;BME280;1558;42.700;23.360;2022-08-14T04:45:44;94737.03;;;17.87;100.00
3096;BME280;1558;42.700;23.360;2022-08-14T04:48:17;94735.47;;;17.97;100.00
3096;BME280;1558;42.700;23.360;2022-08-14T04:51:08;94704.66;;;17.86;100.00
3096;BME280;1558;42.700;23.360;2022-08-14T04:53:38;94742.44;;;18.08;100.00
3096;BME280;1558;42.700;23.360;2022-08-14T04:56:10;94744.38;;;18.11;100.00
3096;BME280;1558;42.700;23.360;2022-08-14T04:59:01;94728.78;;;18.15;100.00
3096;BME280;1558;42.700;23.360;2022-08-14T05:01:38;94742.44;;;18.22;100.00
3096;BME280;1558;42.700;23.360;2022-08-14T05:04:16;94739.28;;;18.27;100.00
3096;BME280;1558;42.700;23.360;2022-08-14T05:06:47;94713.19;;;18.12;100.00
3096;BME280;1558;42.700;23.360;2022-08-14T05:09:20;94742.78;;;18.39;100.00
3096;BME280;1558;42.700;23.360;2022-08-14T05:11:48;94726.03;;;18.30;100.00
3096;BME280;1558;42.700;23.360;2022-08-14T05:14:17;94739.25;;;18.49;100.00
3096;BME280;1558;42.700;23.360;2022-08-14T05:17:09;94713.16;;;18.30;100.00
3096;BME280;1558;42.700;23.360;2022-08-14T05:19:37;94734.97;;;18.51;100.00
3096;BME280;1558;42.700;23.360;2022-08-14T05:22:25;94736.09;;;18.57;100.00
3096;BME280;1558;42.700;23.360;2022-08-14T05:24:53;94723.25;;;18.51;100.00
3096;BME280;1558;42.700;23.360;2022-08-14T05:27:21;94739.19;;;18.70;100.00
3096;BME280;1558;42.700;23.360;2022-08-14T05:29:51;94747.78;;;18.65;100.00
3096;BME280;1558;42.700;23.360;2022-08-14T05:32:24;94733.00;;;18.59;100.00
3096;BME280;1558;42.700;23.360;2022-08-14T05:34:55;94728.66;;;18.61;100.00
3096;BME280;1558;42.700;23.360;2022-08-14T05:37:24;94738.78;;;18.71;100.00
3096;BME280;1558;42.700;23.360;2022-08-14T05:39:55;94736.47;;;18.70;100.00
3096;BME280;1558;42.700;23.360;2022-08-14T05:42:24;94726.31;;;18.67;100.00
3096;BME280;1558;42.700;23.360;2022-08-14T05:45:00;94734.44;;;18.81;100.00
3096;BME280;1558;42.700;23.360;2022-08-14T05:47:32;94737.59;;;18.79;100.00
3096;BME280;1558;42.700;23.360;2022-08-14T05:50:09;94734.84;;;18.76;100.00
3096;BME280;1558;42.700;23.360;2022-08-14T05:52:45;94739.91;;;18.84;100.00
3096;BME280;1558;42.700;23.360;2022-08-14T05:55:13;94741.84;;;18.84;100.00
3096;BME280;1558;42.700;23.360;2022-08-14T05:57:50;94737.16;;;18.88;100.00
3096;BME280;1558;42.700;23.360;2022-08-14T06:00:21;94746.91;;;18.89;100.00
3096;BME280;1558;42.700;23.360;2022-08-14T06:02:58;94744.19;;;18.89;100.00
3096;BME280;1558;42.700;23.360;2022-08-14T06:05:33;94740.66;;;18.92;100.00
3096;BME280;1558;42.700;23.360;2022-08-14T06:08:04;94735.94;;;18.96;100.00
3096;BME280;1558;42.700;23.360;2022-08-14T06:10:48;94733.25;;;18.89;100.00
3096;BME280;1558;42.700;23.360;2022-08-14T06:13:17;94740.22;;;18.97;100.00
3096;BME280;1558;42.700;23.360;2022-08-14T06:15:45;94747.25;;;18.98;100.00
3096;BME280;1558;42.700;23.360;2022-08-14T06:18:16;94750.81;;;18.91;100.00
3096;BME280;1558;42.700;23.360;2022-08-14T06:20:44;94753.94;;;18.86;100.00
3096;BME280;1558;42.700;23.360;2022-08-14T06:23:12;94703.69;;;18.59;100.00
3096;BME280;1558;42.700;23.360;2022-08-14T06:25:40;94761.34;;;18.93;100.00
3096;BME280;1558;42.700;23.360;2022-08-14T06:28:23;94749.66;;;18.89;100.00
3096;BME280;1558;42.700;23.360;2022-08-14T06:30:54;94757.84;;;18.85;100.00
3096;BME280;1558;42.700;23.360;2022-08-14T06:33:24;94757.47;;;18.83;100.00
3096;BME280;1558;42.700;23.360;2022-08-14T06:36:12;94753.22;;;18.75;100.00
3096;BME280;1558;42.700;23.360;2022-08-14T06:38:44;94773.91;;;18.80;100.00
3096;BME280;1558;42.700;23.360;2022-08-14T06:41:16;94766.88;;;18.79;100.00
3096;BME280;1558;42.700;23.360;2022-08-14T06:43:46;94762.97;;;18.80;100.00
3096;BME280;1558;42.700;23.360;2022-08-14T06:46:14;94735.72;;;18.45;100.00
3096;BME280;1558;42.700;23.360;2022-08-14T06:48:59;94734.56;;;18.39;100.00
3096;BME280;1558;42.700;23.360;2022-08-14T06:51:28;94767.28;;;18.67;100.00
3096;BME280;1558;42.700;23.360;2022-08-14T06:54:09;94769.25;;;18.70;100.00
3096;BME280;1558;42.700;23.360;2022-08-14T06:56:38;94768.47;;;18.73;100.00
3096;BME280;1558;42.700;23.360;2022-08-14T06:59:19;94769.97;;;18.84;100.00
3096;BME280;1558;42.700;23.360;2022-08-14T07:01:48;94758.28;;;18.77;100.00
3096;BME280;1558;42.700;23.360;2022-08-14T07:04:40;94766.06;;;18.78;100.00
3096;BME280;1558;42.700;23.360;2022-08-14T07:07:35;94763.72;;;18.84;100.00
3096;BME280;1558;42.700;23.360;2022-08-14T07:10:05;94785.56;;;18.91;100.00
3096;BME280;1558;42.700;23.360;2022-08-14T07:12:43;94768.41;;;18.87;100.00
3096;BME280;1558;42.700;23.360;2022-08-14T07:15:27;94746.16;;;18.78;100.00
3096;BME280;1558;42.700;23.360;2022-08-14T07:18:00;94770.66;;;19.03;100.00
3096;BME280;1558;42.700;23.360;2022-08-14T07:20:32;94772.19;;;19.07;100.00
3096;BME280;1558;42.700;23.360;2022-08-14T07:23:02;94770.63;;;19.10;100.00
3096;BME280;1558;42.700;23.360;2022-08-14T07:25:37;94722.28;;;18.96;100.00
3096;BME280;1558;42.700;23.360;2022-08-14T07:28:11;94769.34;;;19.32;100.00
3096;BME280;1558;42.700;23.360;2022-08-14T07:30:47;94769.72;;;19.37;100.00
3096;BME280;1558;42.700;23.360;2022-08-14T07:33:18;94772.03;;;19.46;100.00
3096;BME280;1558;42.700;23.360;2022-08-14T07:35:57;94764.50;;;19.61;100.00
3096;BME280;1558;42.700;23.360;2022-08-14T07:38:26;94742.19;;;19.66;100.00
3096;BME280;1558;42.700;23.360;2022-08-14T07:41:04;94759.91;;;19.98;100.00
3096;BME280;1558;42.700;23.360;2022-08-14T07:43:42;94744.94;;;20.06;100.00
3096;BME280;1558;42.700;23.360;2022-08-14T07:46:21;94759.34;;;20.14;100.00
3096;BME280;1558;42.700;23.360;2022-08-14T07:48:55;94757.81;;;20.13;100.00
3096;BME280;1558;42.700;23.360;2022-08-14T07:51:25;94754.47;;;19.91;100.00
3096;BME280;1558;42.700;23.360;2022-08-14T07:54:04;94769.72;;;19.92;100.00
3096;BME280;1558;42.700;23.360;2022-08-14T07:56:37;94762.78;;;19.81;100.00
3096;BME280;1558;42.700;23.360;2022-08-14T07:59:16;94771.22;;;19.97;100.00
3096;BME280;1558;42.700;23.360;2022-08-14T08:02:08;94776.22;;;20.09;100.00
3096;BME280;1558;42.700;23.360;2022-08-14T08:04:47;94769.47;;;20.24;100.00
3096;BME280;1558;42.700;23.360;2022-08-14T08:07:21;94766.97;;;20.40;100.00
3096;BME280;1558;42.700;23.360;2022-08-14T08:09:53;94694.75;;;20.20;100.00
3096;BME280;1558;42.700;23.360;2022-08-14T08:12:24;94772.22;;;20.61;100.00
3096;BME280;1558;42.700;23.360;2022-08-14T08:14:54;94768.00;;;20.53;100.00
3096;BME280;1558;42.700;23.360;2022-08-14T08:17:34;94711.34;;;20.02;100.00
3096;BME280;1558;42.700;23.360;2022-08-14T08:20:14;94763.13;;;20.34;100.00
3096;BME280;1558;42.700;23.360;2022-08-14T08:22:47;94756.88;;;20.30;100.00
3096;BME280;1558;42.700;23.360;2022-08-14T08:25:21;94701.63;;;19.98;100.00
3096;BME280;1558;42.700;23.360;2022-08-14T08:27:58;94747.84;;;20.33;100.00
3096;BME280;1558;42.700;23.360;2022-08-14T08:30:35;94747.06;;;20.33;100.00
3096;BME280;1558;42.700;23.360;2022-08-14T08:33:15;94755.63;;;20.38;100.00
3096;BME280;1558;42.700;23.360;2022-08-14T08:35:44;94705.78;;;20.13;100.00
3096;BME280;1558;42.700;23.360;2022-08-14T08:38:21;94753.19;;;20.47;100.00
3096;BME280;1558;42.700;23.360;2022-08-14T08:41:09;94758.50;;;20.61;100.00
3096;BME280;1558;42.700;23.360;2022-08-14T08:43:38;94738.22;;;20.55;100.00
3096;BME280;1558;42.700;23.360;2022-08-14T08:46:14;94747.28;;;20.82;100.00
3096;BME280;1558;42.700;23.360;2022-08-14T08:48:50;94697.19;;;20.82;100.00
3096;BME280;1558;42.700;23.360;2022-08-14T08:51:20;94751.59;;;21.17;100.00
3096;BME280;1558;42.700;23.360;2022-08-14T08:53:59;94755.03;;;21.25;100.00
3096;BME280;1558;42.700;23.360;2022-08-14T08:56:39;94756.25;;;21.47;100.00
3096;BME280;1558;42.700;23.360;2022-08-14T08:59:19;94750.94;;;21.63;100.00
3096;BME280;1558;42.700;23.360;2022-08-14T09:01:48;94750.38;;;21.48;100.00
3096;BME280;1558;42.700;23.360;2022-08-14T09:04:19;94739.44;;;21.45;100.00
3096;BME280;1558;42.700;23.360;2022-08-14T09:06:47;94731.66;;;21.40;100.00
3096;BME280;1558;42.700;23.360;2022-08-14T09:09:38;94728.53;;;21.41;100.00
3096;BME280;1558;42.700;23.360;2022-08-14T09:12:26;94718.50;;;21.28;100.00
3096;BME280;1558;42.700;23.360;2022-08-14T09:14:59;94726.81;;;21.24;100.00
3096;BME280;1558;42.700;23.360;2022-08-14T09:17:28;94726.28;;;21.33;100.00
3096;BME280;1558;42.700;23.360;2022-08-14T09:19:56;94725.34;;;21.43;100.00
3096;BME280;1558;42.700;23.360;2022-08-14T09:22:29;94723.84;;;21.65;100.00
3096;BME280;1558;42.700;23.360;2022-08-14T09:25:04;94723.75;;;21.45;100.00
3096;BME280;1558;42.700;23.360;2022-08-14T09:27:34;94723.28;;;21.24;100.00
3096;BME280;1558;42.700;23.360;2022-08-14T09:30:02;94719.66;;;21.30;100.00
3096;BME280;1558;42.700;23.360;2022-08-14T09:33:02;94715.94;;;21.44;100.00
3096;BME280;1558;42.700;23.360;2022-08-14T09:35:46;94728.53;;;21.41;100.00
3096;BME280;1558;42.700;23.360;2022-08-14T09:38:27;94728.81;;;21.47;100.00
3096;BME280;1558;42.700;23.360;2022-08-14T09:41:08;94712.25;;;21.54;100.00
3096;BME280;1558;42.700;23.360;2022-08-14T09:43:42;94727.88;;;21.84;100.00
3096;BME280;1558;42.700;23.360;2022-08-14T09:46:16;94727.97;;;22.03;100.00
3096;BME280;1558;42.700;23.360;2022-08-14T09:48:57;94686.25;;;22.08;100.00
3096;BME280;1558;42.700;23.360;2022-08-14T09:51:28;94730.22;;;22.32;100.00
3096;BME280;1558;42.700;23.360;2022-08-14T09:54:10;94713.63;;;22.15;100.00
3096;BME280;1558;42.700;23.360;2022-08-14T09:56:50;94721.31;;;22.24;100.00
3096;BME280;1558;42.700;23.360;2022-08-14T09:59:23;94718.63;;;22.20;100.00
3096;BME280;1558;42.700;23.360;2022-08-14T10:01:57;94719.59;;;22.53;100.00
3096;BME280;1558;42.700;23.360;2022-08-14T10:04:27;94712.81;;;23.36;100.00
3096;BME280;1558;42.700;23.360;2022-08-14T10:07:00;94707.69;;;24.19;100.00
3096;BME280;1558;42.700;23.360;2022-08-14T10:09:29;94703.84;;;24.45;96.14
3096;BME280;1558;42.700;23.360;2022-08-14T10:12:02;94708.44;;;24.03;93.90
3096;BME280;1558;42.700;23.360;2022-08-14T10:14:44;94715.94;;;23.71;93.61
3096;BME280;1558;42.700;23.360;2022-08-14T10:17:21;94719.13;;;23.33;94.55
3096;BME280;1558;42.700;23.360;2022-08-14T10:20:04;94715.94;;;23.71;94.52
3096;BME280;1558;42.700;23.360;2022-08-14T10:22:52;94713.44;;;24.08;91.17
3096;BME280;1558;42.700;23.360;2022-08-14T10:25:42;94701.00;;;24.33;87.25
3096;BME280;1558;42.700;23.360;2022-08-14T10:28:12;94662.91;;;24.15;87.55
3096;BME280;1558;42.700;23.360;2022-08-14T10:31:01;94637.00;;;24.25;86.64
3096;BME280;1558;42.700;23.360;2022-08-14T10:33:31;94685.19;;;24.49;80.84
3096;BME280;1558;42.700;23.360;2022-08-14T10:36:00;94683.34;;;24.30;83.08
3096;BME280;1558;42.700;23.360;2022-08-14T10:38:30;94684.41;;;24.20;84.16
3096;BME280;1558;42.700;23.360;2022-08-14T10:41:10;94657.63;;;24.49;84.15
3096;BME280;1558;42.700;23.360;2022-08-14T10:43:41;94683.44;;;25.63;79.57
3096;BME280;1558;42.700;23.360;2022-08-14T10:46:12;94674.44;;;26.44;71.51
3096;BME280;1558;42.700;23.360;2022-08-14T10:49:01;94659.09;;;25.96;72.82
3096;BME280;1558;42.700;23.360;2022-08-14T10:51:32;94638.81;;;25.52;73.73
3096;BME280;1558;42.700;23.360;2022-08-14T10:54:08;94638.56;;;26.96;68.45
3096;BME280;1558;42.700;23.360;2022-08-14T10:56:57;94648.91;;;26.40;66.17
3096;BME280;1558;42.700;23.360;2022-08-14T10:59:26;94657.16;;;25.46;69.33
3096;BME280;1558;42.700;23.360;2022-08-14T11:02:16;94641.78;;;24.66;73.22
3096;BME280;1558;42.700;23.360;2022-08-14T11:05:08;94645.16;;;24.45;75.69
3096;BME280;1558;42.700;23.360;2022-08-14T11:07:41;94564.56;;;23.96;75.40
3096;BME280;1558;42.700;23.360;2022-08-14T11:10:23;94609.75;;;24.14;77.36
3096;BME280;1558;42.700;23.360;2022-08-14T11:12:55;94633.44;;;24.41;74.96
3096;BME280;1558;42.700;23.360;2022-08-14T11:15:26;94638.91;;;24.28;76.42
3096;BME280;1558;42.700;23.360;2022-08-14T11:17:58;94614.28;;;24.21;76.34
3096;BME280;1558;42.700;23.360;2022-08-14T11:20:28;94632.00;;;24.36;76.38
3096;BME280;1558;42.700;23.360;2022-08-14T11:22:59;94576.09;;;24.07;75.58
3096;BME280;1558;42.700;23.360;2022-08-14T11:25:29;94595.41;;;24.48;73.19
3096;BME280;1558;42.700;23.360;2022-08-14T11:28:11;94624.16;;;24.76;73.35
3096;BME280;1558;42.700;23.360;2022-08-14T11:30:48;94631.53;;;25.08;73.64
3096;BME280;1558;42.700;23.360;2022-08-14T11:33:21;94633.41;;;25.48;73.01
3096;BME280;1558;42.700;23.360;2022-08-14T11:35:50;94620.34;;;26.08;70.82
3096;BME280;1558;42.700;23.360;2022-08-14T11:38:25;94608.97;;;25.60;67.73
3096;BME280;1558;42.700;23.360;2022-08-14T11:40:56;94639.59;;;24.73;70.73
3096;BME280;1558;42.700;23.360;2022-08-14T11:43:25;94632.97;;;24.71;72.40
3096;BME280;1558;42.700;23.360;2022-08-14T11:45:59;94634.69;;;24.81;72.65
3096;BME280;1558;42.700;23.360;2022-08-14T11:48:31;94634.16;;;24.57;71.99
3096;BME280;1558;42.700;23.360;2022-08-14T11:51:22;94640.50;;;24.42;73.21
3096;BME280;1558;42.700;23.360;2022-08-14T11:54:00;94640.25;;;24.07;72.87
3096;BME280;1558;42.700;23.360;2022-08-14T11:56:33;94627.75;;;23.87;72.24
3096;BME280;1558;42.700;23.360;2022-08-14T11:59:02;94627.56;;;23.65;73.10
3096;BME280;1558;42.700;23.360;2022-08-14T12:01:37;94633.06;;;23.65;73.65
3096;BME280;1558;42.700;23.360;2022-08-14T12:04:09;94631.19;;;23.46;74.50
3096;BME280;1558;42.700;23.360;2022-08-14T12:06:58;94631.56;;;23.61;75.41
3096;BME280;1558;42.700;23.360;2022-08-14T12:09:29;94632.09;;;23.72;74.40
3096;BME280;1558;42.700;23.360;2022-08-14T12:11:57;94610.25;;;23.65;74.35
3096;BME280;1558;42.700;23.360;2022-08-14T12:14:26;94628.28;;;23.98;74.15
3096;BME280;1558;42.700;23.360;2022-08-14T12:17:04;94624.41;;;24.11;74.02
3096;BME280;1558;42.700;23.360;2022-08-14T12:19:46;94617.25;;;23.98;73.68
3096;BME280;1558;42.700;23.360;2022-08-14T12:22:30;94615.81;;;23.93;73.31
3096;BME280;1558;42.700;23.360;2022-08-14T12:25:00;94610.88;;;24.01;73.30
3096;BME280;1558;42.700;23.360;2022-08-14T12:27:39;94619.16;;;23.85;73.55
3096;BME280;1558;42.700;23.360;2022-08-14T12:30:30;94609.03;;;23.49;74.49
3096;BME280;1558;42.700;23.360;2022-08-14T12:33:21;94610.38;;;23.25;75.82
3096;BME280;1558;42.700;23.360;2022-08-14T12:36:00;94590.09;;;23.19;76.44
3096;BME280;1558;42.700;23.360;2022-08-14T12:38:33;94601.81;;;23.39;76.67
3096;BME280;1558;42.700;23.360;2022-08-14T12:41:05;94592.19;;;23.47;76.30
3096;BME280;1558;42.700;23.360;2022-08-14T12:43:44;94602.19;;;23.41;76.16
3096;BME280;1558;42.700;23.360;2022-08-14T12:46:24;94601.28;;;23.28;76.43
3096;BME280;1558;42.700;23.360;2022-08-14T12:48:57;94560.22;;;23.02;76.52
3096;BME280;1558;42.700;23.360;2022-08-14T12:51:28;94601.13;;;23.35;77.04
3096;BME280;1558;42.700;23.360;2022-08-14T12:53:57;94604.88;;;23.25;77.03
3096;BME280;1558;42.700;23.360;2022-08-14T12:56:26;94583.00;;;22.86;80.48
3096;BME280;1558;42.700;23.360;2022-08-14T12:59:01;94546.13;;;22.48;82.63
3096;BME280;1558;42.700;23.360;2022-08-14T13:01:33;94544.56;;;22.47;83.49
3096;BME280;1558;42.700;23.360;2022-08-14T13:04:22;94579.78;;;22.71;82.94
3096;BME280;1558;42.700;23.360;2022-08-14T13:06:51;94587.19;;;22.74;84.57
3096;BME280;1558;42.700;23.360;2022-08-14T13:09:20;94563.28;;;22.52;88.08
3096;BME280;1558;42.700;23.360;2022-08-14T13:12:04;94575.28;;;22.42;90.90
3096;BME280;1558;42.700;23.360;2022-08-14T13:14:54;94577.59;;;22.27;95.99
3096;BME280;1558;42.700;23.360;2022-08-14T13:17:25;94551.91;;;21.94;98.89
3096;BME280;1558;42.700;23.360;2022-08-14T13:19:58;94578.19;;;21.95;100.00
3096;BME280;1558;42.700;23.360;2022-08-14T13:22:37;94480.06;;;21.14;100.00
3096;BME280;1558;42.700;23.360;2022-08-14T13:25:11;94571.88;;;21.75;100.00
3096;BME280;1558;42.700;23.360;2022-08-14T13:27:43;94501.84;;;21.24;100.00
3096;BME280;1558;42.700;23.360;2022-08-14T13:30:12;94554.25;;;21.53;100.00
3096;BME280;1558;42.700;23.360;2022-08-14T13:32:50;94566.50;;;21.68;100.00
3096;BME280;1558;42.700;23.360;2022-08-14T13:35:20;94514.66;;;21.31;100.00
3096;BME280;1558;42.700;23.360;2022-08-14T13:37:50;94563.41;;;21.66;100.00
3096;BME280;1558;42.700;23.360;2022-08-14T13:40:20;94565.69;;;21.71;100.00
3096;BME280;1558;42.700;23.360;2022-08-14T13:42:53;94561.00;;;21.68;100.00
3096;BME280;1558;42.700;23.360;2022-08-14T13:45:24;94560.41;;;21.61;100.00
3096;BME280;1558;42.700;23.360;2022-08-14T13:48:13;94556.44;;;21.62;100.00